createdAt,value
2018-12-14T00:00:19.359Z,42.27
2018-12-14T00:03:02.383Z,41.10
2018-12-14T00:05:45.636Z,42.03
2018-12-14T00:08:28.867Z,35.83
2018-12-14T00:11:13.104Z,44.07
2018-12-14T00:13:55.874Z,40.93
2018-12-14T00:16:38.038Z,43.93
2018-12-14T00:19:21.287Z,43.63
2018-12-14T00:22:05.123Z,44.10
2018-12-14T00:24:47.710Z,48.80
2018-12-14T00:27:30.930Z,53.67
2018-12-14T00:30:14.594Z,49.63
2018-12-14T00:32:58.986Z,51.07
2018-12-14T00:35:42.342Z,49.77
2018-12-14T00:38:25.518Z,53.57
2018-12-14T00:41:10.005Z,50.57
2018-12-14T00:43:53.899Z,47.13
2018-12-14T00:46:43.030Z,49.27
2018-12-14T00:49:25.491Z,47.33
2018-12-14T00:52:08.158Z,49.60
2018-12-14T00:54:50.914Z,51.27
2018-12-14T00:57:34.816Z,50.00
2018-12-14T01:00:17.940Z,44.67
2018-12-14T01:03:01.111Z,47.37
2018-12-14T01:05:44.091Z,51.70
2018-12-14T01:08:27.448Z,47.97
2018-12-14T01:11:12.277Z,55.33
2018-12-14T01:13:55.397Z,52.27
2018-12-14T01:16:38.847Z,52.40
2018-12-14T01:19:22.835Z,53.23
2018-12-14T01:22:06.573Z,55.73
2018-12-14T01:24:49.419Z,54.17
2018-12-14T01:27:32.747Z,50.83
2018-12-14T01:30:16.267Z,56.03
2018-12-14T01:33:00.007Z,52.67
2018-12-14T01:35:43.270Z,56.10
2018-12-14T01:38:25.880Z,61.70
2018-12-14T01:41:07.988Z,64.57
2018-12-14T01:43:52.798Z,56.83
2018-12-14T01:46:36.969Z,58.03
2018-12-14T01:49:19.847Z,53.10
2018-12-14T01:52:04.135Z,60.40
2018-12-14T01:54:46.648Z,60.73
2018-12-14T01:57:29.143Z,52.13
2018-12-14T02:00:12.148Z,55.03
2018-12-14T02:02:55.099Z,62.07
2018-12-14T02:05:38.296Z,60.97
2018-12-14T02:08:21.061Z,59.30
2018-12-14T02:11:03.905Z,66.77
2018-12-14T02:13:46.710Z,54.03
2018-12-14T02:16:29.933Z,63.10
2018-12-14T02:19:13.023Z,65.47
2018-12-14T02:21:56.240Z,64.87
2018-12-14T02:24:38.829Z,61.30
2018-12-14T02:27:21.699Z,60.57
2018-12-14T02:30:15.155Z,60.63
2018-12-14T02:32:58.579Z,57.90
2018-12-14T02:35:42.023Z,52.83
2018-12-14T02:38:25.440Z,57.67
2018-12-14T02:41:08.804Z,63.47
2018-12-14T02:43:52.357Z,63.23
2018-12-14T02:46:35.025Z,56.93
2018-12-14T02:49:18.244Z,56.73
2018-12-14T02:52:01.271Z,59.50
2018-12-14T02:54:44.707Z,58.90
2018-12-14T02:57:27.944Z,56.57
2018-12-14T03:00:11.367Z,56.17
2018-12-14T03:02:54.000Z,53.13
2018-12-14T03:05:36.217Z,53.67
2018-12-14T03:08:19.956Z,51.77
2018-12-14T03:11:04.172Z,49.53
2018-12-14T03:13:46.700Z,52.47
2018-12-14T03:16:29.891Z,49.13
2018-12-14T03:19:14.063Z,51.67
2018-12-14T03:21:57.511Z,48.50
2018-12-14T03:24:40.375Z,45.53
2018-12-14T03:27:24.431Z,46.80
2018-12-14T03:30:09.911Z,45.47
2018-12-14T03:32:53.148Z,45.97
2018-12-14T03:35:37.335Z,50.43
2018-12-14T03:38:20.763Z,48.27
2018-12-14T03:41:04.363Z,49.30
2018-12-14T03:43:47.536Z,48.33
2018-12-14T03:46:30.820Z,45.17
2018-12-14T03:49:14.561Z,47.07
2018-12-14T03:51:58.408Z,42.80
2018-12-14T03:54:41.629Z,44.23
2018-12-14T03:57:24.889Z,52.10
2018-12-14T04:00:09.872Z,47.17
2018-12-14T04:02:52.733Z,49.53
2018-12-14T04:05:35.320Z,49.83
2018-12-14T04:08:18.175Z,50.03
2018-12-14T04:11:02.117Z,49.70
2018-12-14T04:13:44.653Z,54.40
2018-12-14T04:16:27.885Z,55.33
2018-12-14T04:19:10.779Z,49.03
2018-12-14T04:21:53.663Z,57.13
2018-12-14T04:24:37.116Z,55.87
2018-12-14T04:27:20.252Z,58.97
2018-12-14T04:30:04.900Z,56.67
2018-12-14T04:32:47.440Z,53.43
2018-12-14T04:35:30.633Z,54.90
2018-12-14T04:38:13.801Z,59.97
2018-12-14T04:40:57.115Z,55.90
2018-12-14T04:43:39.835Z,53.93
2018-12-14T04:46:23.029Z,50.50
2018-12-14T04:49:07.075Z,53.33
2018-12-14T04:51:50.293Z,58.60
2018-12-14T04:54:33.738Z,53.57
2018-12-14T04:57:16.291Z,60.37
2018-12-14T04:59:59.122Z,55.67
2018-12-14T05:02:42.610Z,60.00
2018-12-14T05:05:25.389Z,54.17
2018-12-14T05:08:07.913Z,52.30
2018-12-14T05:10:50.743Z,47.33
2018-12-14T05:13:32.744Z,49.03
2018-12-14T05:16:16.485Z,52.70
2018-12-14T05:18:59.401Z,44.87
2018-12-14T05:21:43.739Z,46.27
2018-12-14T05:24:26.050Z,47.17
2018-12-14T05:27:08.963Z,41.83
2018-12-14T05:29:52.095Z,45.07
2018-12-14T05:32:34.468Z,44.00
2018-12-14T05:35:17.255Z,46.23
2018-12-14T05:38:01.054Z,45.47
2018-12-14T05:40:46.055Z,46.97
2018-12-14T05:43:28.678Z,46.23
2018-12-14T05:46:11.179Z,44.33
2018-12-14T05:48:54.148Z,40.03
2018-12-14T05:51:37.795Z,41.30
2018-12-14T05:54:21.999Z,43.20
2018-12-14T05:57:05.489Z,39.50
2018-12-14T05:59:48.612Z,40.87
2018-12-14T06:02:31.467Z,38.73
2018-12-14T06:05:14.949Z,40.87
2018-12-14T06:07:57.807Z,42.93
2018-12-14T06:10:40.700Z,42.07
2018-12-14T06:13:23.145Z,40.73
2018-12-14T06:16:08.047Z,40.83
2018-12-14T06:18:51.559Z,38.67
2018-12-14T06:21:34.759Z,33.60
2018-12-14T06:24:17.968Z,36.97
2018-12-14T06:27:00.895Z,35.63
2018-12-14T06:29:44.800Z,37.27
2018-12-14T06:32:28.791Z,39.63
2018-12-14T06:35:11.626Z,36.60
2018-12-14T06:37:54.129Z,39.30
2018-12-14T06:40:38.454Z,39.27
2018-12-14T06:43:21.344Z,41.43
2018-12-14T06:46:04.176Z,37.30
2018-12-14T06:48:48.118Z,41.50
2018-12-14T06:51:30.540Z,36.27
2018-12-14T06:54:12.843Z,32.40
2018-12-14T06:56:55.850Z,34.43
2018-12-14T06:59:38.539Z,42.13
2018-12-14T07:02:21.800Z,35.33
2018-12-14T07:05:04.099Z,37.10
2018-12-14T07:07:46.548Z,36.13
2018-12-14T07:10:29.071Z,40.27
2018-12-14T07:13:11.772Z,37.10
2018-12-14T07:15:55.341Z,42.67
2018-12-14T07:18:40.245Z,41.17
2018-12-14T07:21:22.951Z,40.37
2018-12-14T07:24:05.384Z,40.50
2018-12-14T07:26:48.799Z,41.50
2018-12-14T07:29:32.422Z,45.73
2018-12-14T07:32:15.819Z,39.83
2018-12-14T07:35:02.855Z,45.40
2018-12-14T07:37:46.848Z,48.00
2018-12-14T07:41:05.594Z,45.27
2018-12-14T07:44:11.202Z,41.33
2018-12-14T07:46:56.084Z,45.23
2018-12-14T07:49:40.596Z,46.33
2018-12-14T07:52:23.276Z,52.40
2018-12-14T07:55:06.463Z,46.87
2018-12-14T07:57:50.508Z,44.37
2018-12-14T08:00:33.452Z,40.57
2018-12-14T08:03:17.319Z,49.67
2018-12-14T08:06:00.312Z,45.50
2018-12-14T08:08:43.394Z,48.57
2018-12-14T08:11:26.372Z,49.20
2018-12-14T08:14:09.473Z,46.80
2018-12-14T08:16:56.636Z,48.93
2018-12-14T08:19:48.498Z,49.67
2018-12-14T08:22:32.808Z,46.40
2018-12-14T08:25:20.103Z,46.00
2018-12-14T08:28:15.883Z,48.40
2018-12-14T08:30:59.600Z,49.17
2018-12-14T08:33:42.941Z,51.67
2018-12-14T08:36:26.635Z,69.27
2018-12-14T08:39:11.048Z,51.17
2018-12-14T08:41:54.900Z,50.33
2018-12-14T08:44:39.139Z,41.10
2018-12-14T08:47:22.510Z,46.77
2018-12-14T08:50:06.963Z,44.13
2018-12-14T08:52:49.895Z,47.40
2018-12-14T08:55:34.567Z,45.67
2018-12-14T08:58:18.172Z,48.37
2018-12-14T09:01:03.198Z,47.70
2018-12-14T09:03:46.844Z,48.17
2018-12-14T09:06:30.563Z,43.60
2018-12-14T09:09:14.576Z,44.87
2018-12-14T09:11:58.399Z,46.97
2018-12-14T09:14:41.336Z,40.90
2018-12-14T09:17:24.951Z,43.20
2018-12-14T09:20:08.484Z,38.47
2018-12-14T09:22:52.779Z,38.67
2018-12-14T09:25:36.246Z,38.60
2018-12-14T09:28:21.466Z,37.93
2018-12-14T09:31:04.381Z,41.37
2018-12-14T09:33:47.079Z,42.87
2018-12-14T09:36:30.491Z,40.83
2018-12-14T09:41:48.157Z,38.33
2018-12-14T09:44:31.760Z,41.73
2018-12-14T09:47:14.765Z,40.53
2018-12-14T09:49:58.430Z,39.63
2018-12-14T09:52:43.105Z,40.17
2018-12-14T09:55:27.094Z,42.10
2018-12-14T09:58:11.345Z,35.73
2018-12-14T10:00:56.712Z,34.20
2018-12-14T10:03:39.698Z,35.30
2018-12-14T10:06:23.341Z,37.00
2018-12-14T10:09:06.927Z,37.37
2018-12-14T10:11:55.098Z,35.97
2018-12-14T10:14:35.468Z,33.57
2018-12-14T10:17:18.595Z,36.53
2018-12-14T10:20:03.035Z,36.47
2018-12-14T10:22:46.183Z,32.97
2018-12-14T10:25:29.211Z,35.50
2018-12-14T10:28:13.084Z,32.97
2018-12-14T10:30:57.436Z,34.03
2018-12-14T10:33:41.585Z,29.43
2018-12-14T10:36:26.303Z,31.80
2018-12-14T10:39:08.506Z,31.67
2018-12-14T10:41:51.239Z,29.73
2018-12-14T10:44:35.124Z,30.77
2018-12-14T10:47:23.203Z,30.60
2018-12-14T10:50:06.084Z,30.47
2018-12-14T10:52:50.644Z,30.43
2018-12-14T10:55:34.244Z,29.47
2018-12-14T10:58:18.139Z,31.20
2018-12-14T11:01:06.328Z,29.33
2018-12-14T11:03:49.336Z,31.57
2018-12-14T11:06:33.992Z,32.07
2018-12-14T11:09:17.684Z,32.03
2018-12-14T11:12:01.154Z,33.90
2018-12-14T11:14:43.466Z,32.67
2018-12-14T11:17:27.746Z,28.07
2018-12-14T11:20:12.856Z,31.50
2018-12-14T11:22:56.267Z,33.93
2018-12-14T11:25:41.032Z,31.50
2018-12-14T11:28:25.560Z,30.53
2018-12-14T11:31:08.587Z,37.93
2018-12-14T11:33:52.512Z,34.43
2018-12-14T11:36:36.068Z,32.90
2018-12-14T11:39:19.173Z,28.73
2018-12-14T11:42:04.117Z,31.83
2018-12-14T11:44:49.594Z,30.63
2018-12-14T11:47:32.961Z,28.67
2018-12-14T11:50:15.875Z,30.53
2018-12-14T11:52:59.639Z,30.23
2018-12-14T11:55:43.621Z,29.20
2018-12-14T11:58:27.082Z,30.10
2018-12-14T12:01:11.715Z,30.83
2018-12-14T12:03:56.080Z,28.70
2018-12-14T12:06:38.780Z,29.00
2018-12-14T12:09:24.640Z,31.63
2018-12-14T12:12:08.308Z,27.37
2018-12-14T12:14:51.683Z,28.87
2018-12-14T12:17:35.738Z,30.77
2018-12-14T12:20:18.820Z,26.00
2018-12-14T12:23:01.636Z,29.37
2018-12-14T12:25:45.236Z,30.53
2018-12-14T12:28:29.413Z,26.67
2018-12-14T12:31:12.328Z,28.50
2018-12-14T12:33:57.208Z,29.87
2018-12-14T12:36:40.831Z,35.07
2018-12-14T12:39:26.453Z,31.53
2018-12-14T12:42:11.811Z,31.30
2018-12-14T12:44:57.175Z,29.30
2018-12-14T12:47:40.803Z,32.90
2018-12-14T12:50:23.229Z,24.27
2018-12-14T12:53:06.670Z,25.07
2018-12-14T12:55:50.157Z,27.97
2018-12-14T12:58:33.135Z,28.20
2018-12-14T13:01:17.499Z,27.17
2018-12-14T13:04:00.941Z,25.00
2018-12-14T13:06:43.494Z,27.27
2018-12-14T13:09:26.639Z,28.70
2018-12-14T13:12:12.423Z,25.77
2018-12-14T13:14:55.201Z,22.77
2018-12-14T13:17:44.246Z,22.67
2018-12-14T13:20:29.653Z,21.90
2018-12-14T13:23:13.523Z,29.00
2018-12-14T13:25:57.048Z,25.40
2018-12-14T13:28:42.442Z,24.97
2018-12-14T13:31:26.996Z,27.37
2018-12-14T13:34:14.550Z,25.40
2018-12-14T13:37:00.984Z,29.60
2018-12-14T13:39:50.083Z,29.00
2018-12-14T13:42:38.604Z,27.17
2018-12-14T13:45:24.633Z,28.53
2018-12-14T13:48:08.685Z,25.77
2018-12-14T13:50:54.692Z,23.27
2018-12-14T13:53:40.421Z,26.27
2018-12-14T13:56:23.736Z,26.60
2018-12-14T13:59:08.938Z,24.13
2018-12-14T14:01:52.446Z,28.70
2018-12-14T14:04:35.923Z,25.07
2018-12-14T14:07:29.775Z,27.07
2018-12-14T14:10:18.386Z,25.80
2018-12-14T14:13:03.930Z,24.13
2018-12-14T14:15:50.835Z,25.40
2018-12-14T14:18:36.766Z,24.57
2018-12-14T14:21:24.847Z,25.67
2018-12-14T14:24:16.357Z,24.47
2018-12-14T14:27:00.114Z,21.73
2018-12-14T14:29:43.229Z,25.70
2018-12-14T14:32:27.847Z,30.63
2018-12-14T14:35:12.861Z,20.63
2018-12-14T14:37:57.682Z,23.33
2018-12-14T14:40:41.911Z,25.30
2018-12-14T14:43:25.702Z,28.93
2018-12-14T14:46:08.831Z,25.97
2018-12-14T14:48:53.104Z,26.30
2018-12-14T14:51:37.328Z,26.10
2018-12-14T14:54:29.666Z,27.10
2018-12-14T14:57:13.136Z,27.20
2018-12-14T14:59:56.322Z,27.87
2018-12-14T15:02:40.270Z,23.17
2018-12-14T15:05:22.603Z,22.67
2018-12-14T15:08:07.012Z,25.57
2018-12-14T15:10:51.921Z,21.93
2018-12-14T15:13:35.226Z,25.27
2018-12-14T15:16:18.766Z,20.67
2018-12-14T15:19:01.281Z,27.37
2018-12-14T15:21:47.055Z,27.43
2018-12-14T15:24:40.827Z,26.40
2018-12-14T15:27:24.604Z,24.07
2018-12-14T15:30:09.123Z,23.27
2018-12-14T15:32:52.759Z,25.30
2018-12-14T15:35:35.993Z,25.63
2018-12-14T15:38:20.139Z,27.27
2018-12-14T15:41:03.941Z,23.33
2018-12-14T15:43:47.455Z,24.80
2018-12-14T15:46:31.461Z,22.47
2018-12-14T15:49:14.873Z,28.90
2018-12-14T15:51:59.469Z,25.03
2018-12-14T15:54:43.644Z,26.27
2018-12-14T15:57:26.327Z,25.63
2018-12-14T16:00:10.472Z,22.93
2018-12-14T16:02:53.020Z,26.17
2018-12-14T16:05:37.484Z,30.03
2018-12-14T16:08:20.357Z,24.50
2018-12-14T16:11:03.109Z,24.63
2018-12-14T16:13:47.196Z,24.10
2018-12-14T16:16:29.950Z,23.93
2018-12-14T16:19:15.060Z,25.53
2018-12-14T16:21:58.109Z,25.80
2018-12-14T16:24:41.557Z,25.23
2018-12-14T16:27:37.915Z,27.20
2018-12-14T16:30:22.012Z,30.27
2018-12-14T16:33:05.556Z,25.50
2018-12-14T16:35:48.497Z,25.83
2018-12-14T16:38:31.359Z,27.57
2018-12-14T16:41:16.576Z,24.03
2018-12-14T16:43:59.126Z,27.00
2018-12-14T16:46:42.937Z,27.17
2018-12-14T16:49:27.923Z,26.47
2018-12-14T16:52:11.240Z,22.40
2018-12-14T16:54:54.948Z,25.50
2018-12-14T16:57:39.307Z,25.23
2018-12-14T17:00:22.124Z,27.57
2018-12-14T17:03:06.221Z,28.73
2018-12-14T17:05:49.626Z,25.33
2018-12-14T17:08:33.495Z,24.43
2018-12-14T17:11:18.503Z,24.37
2018-12-14T17:14:01.400Z,24.23
2018-12-14T17:16:45.344Z,25.23
2018-12-14T17:19:28.272Z,27.07
2018-12-14T17:22:13.129Z,25.73
2018-12-14T17:24:56.576Z,25.77
2018-12-14T17:27:40.907Z,26.97
2018-12-14T17:30:27.602Z,25.10
2018-12-14T17:33:11.476Z,26.73
2018-12-14T17:35:55.224Z,26.17
2018-12-14T17:38:39.906Z,28.13
2018-12-14T17:41:25.013Z,28.70
2018-12-14T17:44:08.267Z,29.67
2018-12-14T17:46:52.619Z,27.47
2018-12-14T17:49:36.836Z,25.13
2018-12-14T17:52:20.218Z,26.80
2018-12-14T17:55:04.471Z,27.40
2018-12-14T17:57:49.028Z,31.13
2018-12-14T18:00:32.044Z,33.47
2018-12-14T18:03:16.323Z,36.27
2018-12-14T18:06:00.107Z,32.57
2018-12-14T18:08:43.816Z,30.67
2018-12-14T18:11:27.692Z,29.23
2018-12-14T18:14:11.255Z,31.50
2018-12-14T18:16:55.771Z,28.73
2018-12-14T18:19:40.856Z,29.27
2018-12-14T18:22:24.276Z,27.27
2018-12-14T18:25:07.348Z,30.70
2018-12-14T18:27:51.124Z,28.30
2018-12-14T18:30:33.900Z,31.03
2018-12-14T18:33:17.928Z,26.47
2018-12-14T18:36:02.387Z,26.80
2018-12-14T18:38:45.031Z,31.80
2018-12-14T18:41:27.932Z,28.93
2018-12-14T18:44:12.174Z,28.60
2018-12-14T18:46:59.034Z,33.00
2018-12-14T18:49:43.696Z,31.87
2018-12-14T18:52:28.121Z,27.03
2018-12-14T18:55:12.027Z,33.63
2018-12-14T18:57:56.112Z,29.93
2018-12-14T19:00:39.500Z,30.87
2018-12-14T19:03:22.433Z,33.57
2018-12-14T19:06:06.763Z,32.70
2018-12-14T19:08:51.392Z,32.57
2018-12-14T19:11:34.703Z,33.63
2018-12-14T19:14:17.976Z,32.03
2018-12-14T19:17:02.486Z,32.67
2018-12-14T19:19:46.572Z,33.30
2018-12-14T19:22:30.354Z,36.43
2018-12-14T19:25:13.286Z,29.73
2018-12-14T19:27:56.408Z,27.57
2018-12-14T19:30:40.842Z,32.50
2018-12-14T19:33:24.098Z,34.57
2018-12-14T19:36:08.848Z,30.83
2018-12-14T19:38:52.195Z,30.53
2018-12-14T19:41:40.099Z,30.63
2018-12-14T19:44:23.945Z,35.43
2018-12-14T19:47:07.432Z,32.67
2018-12-14T19:49:50.695Z,37.37
2018-12-14T19:52:36.392Z,34.93
2018-12-14T19:55:21.874Z,32.10
2018-12-14T19:58:04.792Z,36.73
2018-12-14T20:00:49.031Z,34.23
2018-12-14T20:03:33.108Z,38.53
2018-12-14T20:06:16.324Z,37.57
2018-12-14T20:08:59.643Z,37.80
2018-12-14T20:11:43.377Z,36.80
2018-12-14T20:14:28.523Z,35.53
2018-12-14T20:17:13.235Z,36.33
2018-12-14T20:19:58.811Z,38.07
2018-12-14T20:22:41.489Z,36.00
2018-12-14T20:25:25.443Z,39.07
2018-12-14T20:28:09.145Z,36.77
2018-12-14T20:30:53.001Z,32.30
2018-12-14T20:33:36.773Z,38.93
2018-12-14T20:36:28.214Z,36.67
2018-12-14T20:39:11.016Z,35.40
2018-12-14T20:41:55.092Z,34.87
2018-12-14T20:44:40.726Z,35.03
2018-12-14T20:47:23.961Z,36.93
2018-12-14T20:50:08.671Z,33.17
2018-12-14T20:52:52.791Z,37.17
2018-12-14T20:55:35.917Z,37.10
2018-12-14T20:58:21.321Z,35.10
2018-12-14T21:01:06.913Z,37.47
2018-12-14T21:03:49.481Z,36.50
2018-12-14T21:06:33.520Z,34.77
2018-12-14T21:09:18.639Z,34.93
2018-12-14T21:12:05.841Z,36.67
2018-12-14T21:14:50.952Z,37.70
2018-12-14T21:17:34.781Z,36.13
2018-12-14T21:20:17.527Z,36.63
2018-12-14T21:26:45.252Z,36.70
2018-12-14T21:29:29.582Z,35.30
2018-12-14T21:32:13.115Z,35.70
2018-12-14T21:34:57.205Z,45.27
2018-12-14T21:37:40.288Z,37.63
2018-12-14T21:40:24.939Z,39.30
2018-12-14T21:43:08.305Z,35.43
2018-12-14T21:45:52.254Z,37.30
2018-12-14T21:48:35.579Z,42.10
2018-12-14T21:51:19.546Z,44.17
2018-12-14T21:54:04.295Z,38.47
2018-12-14T21:56:47.181Z,37.73
2018-12-14T21:59:30.054Z,36.00
2018-12-14T22:02:14.032Z,36.43
2018-12-14T22:04:58.618Z,38.93
2018-12-14T22:07:41.649Z,38.23
2018-12-14T22:10:24.405Z,36.57
2018-12-14T22:13:07.579Z,40.97
2018-12-14T22:15:54.960Z,42.80
2018-12-14T22:18:39.044Z,39.00
2018-12-14T22:21:22.221Z,38.33
2018-12-14T22:24:06.764Z,37.53
2018-12-14T22:26:50.812Z,37.83
2018-12-14T22:29:34.638Z,39.40
2018-12-14T22:32:22.865Z,39.73
2018-12-14T22:35:06.072Z,38.23
2018-12-14T22:37:49.836Z,37.83
2018-12-14T22:40:33.617Z,35.67
2018-12-14T22:43:21.990Z,33.83
2018-12-14T22:46:05.195Z,41.97
2018-12-14T22:48:49.582Z,43.67
2018-12-14T22:51:32.308Z,42.17
2018-12-14T22:54:16.969Z,36.33
2018-12-14T22:57:00.525Z,38.20
2018-12-14T22:59:45.082Z,34.97
2018-12-14T23:02:28.164Z,38.13
2018-12-14T23:05:10.782Z,36.17
2018-12-14T23:07:57.144Z,33.67
2018-12-14T23:10:47.996Z,36.47
2018-12-14T23:13:32.500Z,38.53
2018-12-14T23:16:14.993Z,36.07
2018-12-14T23:18:59.625Z,40.87
2018-12-14T23:21:45.223Z,40.13
2018-12-14T23:24:28.154Z,42.60
2018-12-14T23:27:12.434Z,39.40
2018-12-14T23:29:58.674Z,35.93
2018-12-14T23:32:42.916Z,34.60
2018-12-14T23:35:27.474Z,39.13
2018-12-14T23:38:14.644Z,38.30
2018-12-14T23:40:57.441Z,40.70
2018-12-14T23:43:41.992Z,34.27
2018-12-14T23:46:25.168Z,36.73
2018-12-14T23:49:08.457Z,39.80
2018-12-14T23:51:53.693Z,49.90
2018-12-14T23:54:37.467Z,48.70
2018-12-14T23:57:20.927Z,41.27
